<?xml version="1.0" encoding="UTF-8"?>
<gpx creator="Wikiloc - https://www.wikiloc.com" version="1.1" xmlns="http://www.topografix.com/GPX/1/1" xmlns:xsi="http://www.w3.org/2001/XMLSchema-instance" xsi:schemaLocation="http://www.topografix.com/GPX/1/1 http://www.topografix.com/GPX/1/1/gpx.xsd">
  <wpt lat="38.175671" lon="-6.657671">
    <ele>577.0</ele>
    <time>2010-01-21T12:07:56Z</time>
    <name>PANEL INICIO</name>
    <cmt>15-ENE-10 13:15:02</cmt>
    <desc>15-ENE-10 13:15:02</desc>
  </wpt>
  <wpt lat="38.183934" lon="-6.669318">
    <ele>0.0</ele>
    <time>2011-06-14T20:25:22Z</time>
    <name>DEPOSITO</name>
    <cmt></cmt>
    <desc></desc>
  </wpt>
  <wpt lat="38.178616" lon="-6.660321">
    <ele>0.0</ele>
    <time>2011-06-14T20:26:56Z</time>
    <name>SENDA</name>
    <cmt></cmt>
    <desc></desc>
  </wpt>
  <trk>
    <name>SL-BA 150 'Camino Huertas de la Rivera' (Fregenal de la Sierra)</name>
    <cmt>Más información en http://fexme.com/buscar-senderos/</cmt>
    <desc>Más información en http://fexme.com/buscar-senderos/</desc>
    <trkseg>
      <trkpt lat="38.180000" lon="-6.662030">
        <ele>592.2</ele>
        <time>2010-01-15T13:30:27Z</time>
      </trkpt>
      <trkpt lat="38.180120" lon="-6.662230">
        <ele>592.8</ele>
        <time>2010-01-15T13:30:45Z</time>
      </trkpt>
      <trkpt lat="38.180260" lon="-6.662450">
        <ele>592.8</ele>
        <time>2010-01-15T13:31:07Z</time>
      </trkpt>
      <trkpt lat="38.180350" lon="-6.662600">
        <ele>593.1</ele>
        <time>2010-01-15T13:31:24Z</time>
      </trkpt>
      <trkpt lat="38.180520" lon="-6.662900">
        <ele>593.8</ele>
        <time>2010-01-15T13:31:51Z</time>
      </trkpt>
      <trkpt lat="38.180730" lon="-6.663150">
        <ele>594.4</ele>
        <time>2010-01-15T13:32:15Z</time>
      </trkpt>
      <trkpt lat="38.180860" lon="-6.663300">
        <ele>594.4</ele>
        <time>2010-01-15T13:32:30Z</time>
      </trkpt>
      <trkpt lat="38.180960" lon="-6.663450">
        <ele>595.3</ele>
        <time>2010-01-15T13:32:53Z</time>
      </trkpt>
      <trkpt lat="38.180970" lon="-6.663460">
        <ele>595.6</ele>
        <time>2010-01-15T13:33:45Z</time>
      </trkpt>
      <trkpt lat="38.181200" lon="-6.663650">
        <ele>596.2</ele>
        <time>2010-01-15T13:34:08Z</time>
      </trkpt>
      <trkpt lat="38.181220" lon="-6.663670">
        <ele>596.2</ele>
        <time>2010-01-15T13:34:10Z</time>
      </trkpt>
      <trkpt lat="38.181270" lon="-6.663700">
        <ele>596.2</ele>
        <time>2010-01-15T13:34:13Z</time>
      </trkpt>
      <trkpt lat="38.181540" lon="-6.663950">
        <ele>597.1</ele>
        <time>2010-01-15T13:34:40Z</time>
      </trkpt>
      <trkpt lat="38.181570" lon="-6.663980">
        <ele>597.7</ele>
        <time>2010-01-15T13:34:44Z</time>
      </trkpt>
      <trkpt lat="38.181750" lon="-6.664230">
        <ele>598.9</ele>
        <time>2010-01-15T13:35:06Z</time>
      </trkpt>
      <trkpt lat="38.181990" lon="-6.664560">
        <ele>601.1</ele>
        <time>2010-01-15T13:35:34Z</time>
      </trkpt>
      <trkpt lat="38.182310" lon="-6.664860">
        <ele>602.3</ele>
        <time>2010-01-15T13:36:06Z</time>
      </trkpt>
      <trkpt lat="38.182570" lon="-6.665210">
        <ele>603.5</ele>
        <time>2010-01-15T13:36:35Z</time>
      </trkpt>
      <trkpt lat="38.182670" lon="-6.665620">
        <ele>605.3</ele>
        <time>2010-01-15T13:37:00Z</time>
      </trkpt>
      <trkpt lat="38.182760" lon="-6.665760">
        <ele>605.6</ele>
        <time>2010-01-15T13:37:26Z</time>
      </trkpt>
      <trkpt lat="38.183060" lon="-6.666080">
        <ele>606.2</ele>
        <time>2010-01-15T13:37:57Z</time>
      </trkpt>
      <trkpt lat="38.183150" lon="-6.666510">
        <ele>607.2</ele>
        <time>2010-01-15T13:38:24Z</time>
      </trkpt>
      <trkpt lat="38.183220" lon="-6.667010">
        <ele>607.8</ele>
        <time>2010-01-15T13:38:55Z</time>
      </trkpt>
      <trkpt lat="38.183400" lon="-6.667370">
        <ele>608.7</ele>
        <time>2010-01-15T13:39:25Z</time>
      </trkpt>
      <trkpt lat="38.183640" lon="-6.667790">
        <ele>608.1</ele>
        <time>2010-01-15T13:39:56Z</time>
      </trkpt>
      <trkpt lat="38.183750" lon="-6.668050">
        <ele>608.1</ele>
        <time>2010-01-15T13:40:16Z</time>
      </trkpt>
      <trkpt lat="38.183820" lon="-6.668280">
        <ele>608.1</ele>
        <time>2010-01-15T13:40:35Z</time>
      </trkpt>
      <trkpt lat="38.183850" lon="-6.668680">
        <ele>608.1</ele>
        <time>2010-01-15T13:40:58Z</time>
      </trkpt>
      <trkpt lat="38.183900" lon="-6.669010">
        <ele>608.7</ele>
        <time>2010-01-15T13:41:25Z</time>
      </trkpt>
      <trkpt lat="38.183920" lon="-6.669190">
        <ele>609.0</ele>
        <time>2010-01-15T13:41:49Z</time>
      </trkpt>
      <trkpt lat="38.183920" lon="-6.669200">
        <ele>609.0</ele>
        <time>2010-01-15T13:42:14Z</time>
      </trkpt>
      <trkpt lat="38.184120" lon="-6.669350">
        <ele>608.7</ele>
        <time>2010-01-15T13:45:13Z</time>
      </trkpt>
      <trkpt lat="38.184470" lon="-6.669280">
        <ele>610.2</ele>
        <time>2010-01-15T13:45:43Z</time>
      </trkpt>
      <trkpt lat="38.184610" lon="-6.669230">
        <ele>611.1</ele>
        <time>2010-01-15T13:46:02Z</time>
      </trkpt>
      <trkpt lat="38.184750" lon="-6.669160">
        <ele>612.6</ele>
        <time>2010-01-15T13:46:21Z</time>
      </trkpt>
      <trkpt lat="38.184990" lon="-6.668990">
        <ele>614.8</ele>
        <time>2010-01-15T13:46:46Z</time>
      </trkpt>
      <trkpt lat="38.185360" lon="-6.668650">
        <ele>614.8</ele>
        <time>2010-01-15T13:47:20Z</time>
      </trkpt>
      <trkpt lat="38.185750" lon="-6.668180">
        <ele>613.6</ele>
        <time>2010-01-15T13:47:59Z</time>
      </trkpt>
      <trkpt lat="38.186100" lon="-6.667740">
        <ele>611.1</ele>
        <time>2010-01-15T13:48:37Z</time>
      </trkpt>
      <trkpt lat="38.186280" lon="-6.667540">
        <ele>610.5</ele>
        <time>2010-01-15T13:49:08Z</time>
      </trkpt>
      <trkpt lat="38.186320" lon="-6.667470">
        <ele>610.2</ele>
        <time>2010-01-15T13:49:31Z</time>
      </trkpt>
      <trkpt lat="38.186320" lon="-6.667380">
        <ele>609.6</ele>
        <time>2010-01-15T13:49:47Z</time>
      </trkpt>
      <trkpt lat="38.186260" lon="-6.667300">
        <ele>609.6</ele>
        <time>2010-01-15T13:49:58Z</time>
      </trkpt>
      <trkpt lat="38.185940" lon="-6.667000">
        <ele>607.8</ele>
        <time>2010-01-15T13:51:00Z</time>
      </trkpt>
      <trkpt lat="38.185750" lon="-6.666800">
        <ele>606.9</ele>
        <time>2010-01-15T13:51:19Z</time>
      </trkpt>
      <trkpt lat="38.185450" lon="-6.666480">
        <ele>607.2</ele>
        <time>2010-01-15T13:51:47Z</time>
      </trkpt>
      <trkpt lat="38.185110" lon="-6.666070">
        <ele>606.2</ele>
        <time>2010-01-15T13:52:22Z</time>
      </trkpt>
      <trkpt lat="38.184760" lon="-6.665730">
        <ele>604.4</ele>
        <time>2010-01-15T13:52:56Z</time>
      </trkpt>
      <trkpt lat="38.184550" lon="-6.665510">
        <ele>603.8</ele>
        <time>2010-01-15T13:53:20Z</time>
      </trkpt>
      <trkpt lat="38.184410" lon="-6.665320">
        <ele>603.8</ele>
        <time>2010-01-15T13:53:46Z</time>
      </trkpt>
      <trkpt lat="38.184110" lon="-6.664890">
        <ele>603.5</ele>
        <time>2010-01-15T13:54:21Z</time>
      </trkpt>
      <trkpt lat="38.183740" lon="-6.664350">
        <ele>602.9</ele>
        <time>2010-01-15T13:55:04Z</time>
      </trkpt>
      <trkpt lat="38.183380" lon="-6.663820">
        <ele>602.3</ele>
        <time>2010-01-15T13:55:46Z</time>
      </trkpt>
      <trkpt lat="38.183130" lon="-6.663490">
        <ele>602.3</ele>
        <time>2010-01-15T13:56:13Z</time>
      </trkpt>
      <trkpt lat="38.183070" lon="-6.663430">
        <ele>602.3</ele>
        <time>2010-01-15T13:56:19Z</time>
      </trkpt>
      <trkpt lat="38.182780" lon="-6.663150">
        <ele>603.5</ele>
        <time>2010-01-15T13:58:07Z</time>
      </trkpt>
      <trkpt lat="38.182710" lon="-6.663070">
        <ele>602.3</ele>
        <time>2010-01-15T13:58:32Z</time>
      </trkpt>
      <trkpt lat="38.182700" lon="-6.663060">
        <ele>602.9</ele>
        <time>2010-01-15T13:59:03Z</time>
      </trkpt>
      <trkpt lat="38.182390" lon="-6.662770">
        <ele>602.9</ele>
        <time>2010-01-15T14:01:48Z</time>
      </trkpt>
      <trkpt lat="38.181980" lon="-6.662400">
        <ele>601.4</ele>
        <time>2010-01-15T14:02:24Z</time>
      </trkpt>
      <trkpt lat="38.181560" lon="-6.662050">
        <ele>599.5</ele>
        <time>2010-01-15T14:03:01Z</time>
      </trkpt>
      <trkpt lat="38.181470" lon="-6.661980">
        <ele>598.6</ele>
        <time>2010-01-15T14:03:09Z</time>
      </trkpt>
      <trkpt lat="38.181430" lon="-6.661910">
        <ele>598.6</ele>
        <time>2010-01-15T14:03:14Z</time>
      </trkpt>
      <trkpt lat="38.181220" lon="-6.661670">
        <ele>598.6</ele>
        <time>2010-01-15T14:03:36Z</time>
      </trkpt>
      <trkpt lat="38.181160" lon="-6.661600">
        <ele>598.0</ele>
        <time>2010-01-15T14:03:41Z</time>
      </trkpt>
      <trkpt lat="38.180920" lon="-6.661210">
        <ele>596.5</ele>
        <time>2010-01-15T14:04:10Z</time>
      </trkpt>
      <trkpt lat="38.180500" lon="-6.660760">
        <ele>595.3</ele>
        <time>2010-01-15T14:04:50Z</time>
      </trkpt>
      <trkpt lat="38.180120" lon="-6.660370">
        <ele>594.4</ele>
        <time>2010-01-15T14:05:24Z</time>
      </trkpt>
      <trkpt lat="38.179780" lon="-6.660070">
        <ele>593.1</ele>
        <time>2010-01-15T14:05:55Z</time>
      </trkpt>
      <trkpt lat="38.179420" lon="-6.659610">
        <ele>592.2</ele>
        <time>2010-01-15T14:06:32Z</time>
      </trkpt>
      <trkpt lat="38.179100" lon="-6.659030">
        <ele>589.5</ele>
        <time>2010-01-15T14:07:11Z</time>
      </trkpt>
      <trkpt lat="38.179020" lon="-6.658870">
        <ele>588.9</ele>
        <time>2010-01-15T14:07:35Z</time>
      </trkpt>
      <trkpt lat="38.178770" lon="-6.658400">
        <ele>588.0</ele>
        <time>2010-01-15T14:08:09Z</time>
      </trkpt>
      <trkpt lat="38.178470" lon="-6.657890">
        <ele>587.0</ele>
        <time>2010-01-15T14:08:47Z</time>
      </trkpt>
      <trkpt lat="38.178150" lon="-6.657420">
        <ele>587.0</ele>
        <time>2010-01-15T14:09:23Z</time>
      </trkpt>
      <trkpt lat="38.177820" lon="-6.656930">
        <ele>586.4</ele>
        <time>2010-01-15T14:10:01Z</time>
      </trkpt>
      <trkpt lat="38.177750" lon="-6.656830">
        <ele>586.4</ele>
        <time>2010-01-15T14:10:13Z</time>
      </trkpt>
      <trkpt lat="38.177500" lon="-6.656310">
        <ele>586.4</ele>
        <time>2010-01-15T14:10:49Z</time>
      </trkpt>
      <trkpt lat="38.177360" lon="-6.656120">
        <ele>586.4</ele>
        <time>2010-01-15T14:11:04Z</time>
      </trkpt>
      <trkpt lat="38.177310" lon="-6.656140">
        <ele>585.2</ele>
        <time>2010-01-15T14:11:08Z</time>
      </trkpt>
      <trkpt lat="38.177050" lon="-6.656400">
        <ele>581.9</ele>
        <time>2010-01-15T14:11:31Z</time>
      </trkpt>
      <trkpt lat="38.176600" lon="-6.656830">
        <ele>579.4</ele>
        <time>2010-01-15T14:12:10Z</time>
      </trkpt>
      <trkpt lat="38.176220" lon="-6.657180">
        <ele>578.5</ele>
        <time>2010-01-15T14:12:44Z</time>
      </trkpt>
      <trkpt lat="38.175910" lon="-6.657490">
        <ele>578.5</ele>
        <time>2010-01-15T14:13:15Z</time>
      </trkpt>
      <trkpt lat="38.175790" lon="-6.657590">
        <ele>578.5</ele>
        <time>2010-01-15T14:13:46Z</time>
      </trkpt>
      <trkpt lat="38.175690" lon="-6.657680">
        <ele>579.4</ele>
        <time>2010-01-15T14:14:01Z</time>
      </trkpt>
      <trkpt lat="38.175700" lon="-6.657740">
        <ele>579.4</ele>
        <time>2010-01-15T14:14:05Z</time>
      </trkpt>
      <trkpt lat="38.175980" lon="-6.657990">
        <ele>581.9</ele>
        <time>2010-01-15T14:14:32Z</time>
      </trkpt>
      <trkpt lat="38.176200" lon="-6.658180">
        <ele>585.2</ele>
        <time>2010-01-15T14:14:54Z</time>
      </trkpt>
      <trkpt lat="38.176630" lon="-6.658370">
        <ele>587.0</ele>
        <time>2010-01-15T14:15:27Z</time>
      </trkpt>
      <trkpt lat="38.176900" lon="-6.658510">
        <ele>588.0</ele>
        <time>2010-01-15T14:15:50Z</time>
      </trkpt>
      <trkpt lat="38.177250" lon="-6.658720">
        <ele>589.5</ele>
        <time>2010-01-15T14:16:20Z</time>
      </trkpt>
      <trkpt lat="38.177510" lon="-6.658910">
        <ele>592.2</ele>
        <time>2010-01-15T14:16:42Z</time>
      </trkpt>
      <trkpt lat="38.177820" lon="-6.659190">
        <ele>594.4</ele>
        <time>2010-01-15T14:17:10Z</time>
      </trkpt>
      <trkpt lat="38.178210" lon="-6.659550">
        <ele>594.4</ele>
        <time>2010-01-15T14:17:44Z</time>
      </trkpt>
      <trkpt lat="38.178480" lon="-6.660050">
        <ele>593.8</ele>
        <time>2010-01-15T14:18:16Z</time>
      </trkpt>
      <trkpt lat="38.178700" lon="-6.660490">
        <ele>594.4</ele>
        <time>2010-01-15T14:18:45Z</time>
      </trkpt>
      <trkpt lat="38.178930" lon="-6.660760">
        <ele>594.7</ele>
        <time>2010-01-15T14:19:10Z</time>
      </trkpt>
      <trkpt lat="38.179240" lon="-6.661060">
        <ele>594.7</ele>
        <time>2010-01-15T14:19:39Z</time>
      </trkpt>
      <trkpt lat="38.179560" lon="-6.661390">
        <ele>594.7</ele>
        <time>2010-01-15T14:20:07Z</time>
      </trkpt>
      <trkpt lat="38.179710" lon="-6.661590">
        <ele>594.7</ele>
        <time>2010-01-15T14:20:23Z</time>
      </trkpt>
      <trkpt lat="38.179870" lon="-6.661890">
        <ele>595.3</ele>
        <time>2010-01-15T14:20:47Z</time>
      </trkpt>
      <trkpt lat="38.179960" lon="-6.662010">
        <ele>595.3</ele>
        <time>2010-01-15T14:21:05Z</time>
      </trkpt>
    </trkseg>
  </trk></gpx>